Colonia Dora, Argentina
Current Conditions -  °F | °C
As of 9:00 AM on Monday 24 Nov 2014 (Local Time) from SANT Reporting Station
Clear Clear  
Wind Chill: 25°   Ceiling: Unl
Heat Index: 26°   Visibility: 6mi
Dew Point: 18°   Wind: 7mph
Humidity: 65%   Direction: 180°S
Pressure: 29.68"   Gusts: NA
Location:  28.6°S, 62.95°W
Report Text: SANT 241200Z 18006KT CAVOK 25/18 Q1005
Loading
Personal Weather Stations






























Interactive Weather Map New forecast layout! Learn more

10-Day Weather Forecast

Advertisements
Track Severe Weather on mobile